sensor_id;sensor_type;location;lat;lon;timestamp;P1;durP1;ratioP1;P2;durP2;ratioP2
63350;SDS011;74263;51.058;17.040;2024-03-29T00:00:31;4.50;;;2.90;;
63350;SDS011;74263;51.058;17.040;2024-03-29T00:05:32;4.90;;;3.10;;
63350;SDS011;74263;51.058;17.040;2024-03-29T00:10:33;5.50;;;2.63;;
63350;SDS011;74263;51.058;17.040;2024-03-29T00:15:34;2.95;;;2.70;;
63350;SDS011;74263;51.058;17.040;2024-03-29T00:20:34;3.95;;;2.88;;
63350;SDS011;74263;51.058;17.040;2024-03-29T00:25:35;5.00;;;2.92;;
63350;SDS011;74263;51.058;17.040;2024-03-29T00:30:35;6.68;;;2.97;;
63350;SDS011;74263;51.058;17.040;2024-03-29T00:35:36;3.10;;;2.78;;
63350;SDS011;74263;51.058;17.040;2024-03-29T00:40:36;2.60;;;2.35;;
63350;SDS011;74263;51.058;17.040;2024-03-29T00:45:37;3.75;;;3.13;;
63350;SDS011;74263;51.058;17.040;2024-03-29T00:50:37;4.20;;;3.00;;
63350;SDS011;74263;51.058;17.040;2024-03-29T00:55:38;2.90;;;2.63;;
63350;SDS011;74263;51.058;17.040;2024-03-29T01:00:39;5.07;;;3.20;;
63350;SDS011;74263;51.058;17.040;2024-03-29T01:05:39;3.58;;;3.17;;
63350;SDS011;74263;51.058;17.040;2024-03-29T01:10:40;3.30;;;3.03;;
63350;SDS011;74263;51.058;17.040;2024-03-29T01:15:40;3.63;;;3.33;;
63350;SDS011;74263;51.058;17.040;2024-03-29T01:20:41;3.50;;;3.20;;
63350;SDS011;74263;51.058;17.040;2024-03-29T01:25:41;4.20;;;3.42;;
63350;SDS011;74263;51.058;17.040;2024-03-29T01:30:42;5.32;;;3.10;;
63350;SDS011;74263;51.058;17.040;2024-03-29T01:35:42;3.92;;;3.28;;
63350;SDS011;74263;51.058;17.040;2024-03-29T01:40:43;4.10;;;3.30;;
63350;SDS011;74263;51.058;17.040;2024-03-29T01:45:43;3.33;;;3.03;;
63350;SDS011;74263;51.058;17.040;2024-03-29T01:50:47;3.35;;;3.05;;
63350;SDS011;74263;51.058;17.040;2024-03-29T01:55:48;4.57;;;3.20;;
63350;SDS011;74263;51.058;17.040;2024-03-29T02:00:53;4.00;;;3.05;;
63350;SDS011;74263;51.058;17.040;2024-03-29T02:05:54;4.25;;;3.10;;
63350;SDS011;74263;51.058;17.040;2024-03-29T02:10:55;3.20;;;2.80;;
63350;SDS011;74263;51.058;17.040;2024-03-29T02:15:55;3.17;;;2.85;;
63350;SDS011;74263;51.058;17.040;2024-03-29T02:20:56;5.20;;;4.07;;
63350;SDS011;74263;51.058;17.040;2024-03-29T02:25:56;3.65;;;3.17;;
63350;SDS011;74263;51.058;17.040;2024-03-29T02:30:57;4.97;;;3.65;;
63350;SDS011;74263;51.058;17.040;2024-03-29T02:35:57;4.63;;;4.00;;
63350;SDS011;74263;51.058;17.040;2024-03-29T02:40:58;5.72;;;3.70;;
63350;SDS011;74263;51.058;17.040;2024-03-29T02:45:58;5.53;;;2.58;;
63350;SDS011;74263;51.058;17.040;2024-03-29T02:50:59;3.50;;;3.20;;
63350;SDS011;74263;51.058;17.040;2024-03-29T02:55:59;7.35;;;3.63;;
63350;SDS011;74263;51.058;17.040;2024-03-29T03:01:06;4.25;;;2.70;;
63350;SDS011;74263;51.058;17.040;2024-03-29T03:06:07;5.10;;;3.30;;
63350;SDS011;74263;51.058;17.040;2024-03-29T03:11:08;3.83;;;3.25;;
63350;SDS011;74263;51.058;17.040;2024-03-29T03:16:08;5.60;;;3.50;;
63350;SDS011;74263;51.058;17.040;2024-03-29T03:21:09;3.17;;;2.88;;
63350;SDS011;74263;51.058;17.040;2024-03-29T03:26:09;4.18;;;3.25;;
63350;SDS011;74263;51.058;17.040;2024-03-29T03:31:10;3.90;;;2.78;;
63350;SDS011;74263;51.058;17.040;2024-03-29T03:36:10;4.60;;;3.00;;
63350;SDS011;74263;51.058;17.040;2024-03-29T03:41:11;4.95;;;2.95;;
63350;SDS011;74263;51.058;17.040;2024-03-29T03:46:11;3.00;;;2.80;;
63350;SDS011;74263;51.058;17.040;2024-03-29T03:51:12;3.78;;;2.95;;
63350;SDS011;74263;51.058;17.040;2024-03-29T03:56:12;4.40;;;2.90;;
63350;SDS011;74263;51.058;17.040;2024-03-29T04:01:13;3.92;;;2.95;;
63350;SDS011;74263;51.058;17.040;2024-03-29T04:06:13;5.38;;;2.63;;
63350;SDS011;74263;51.058;17.040;2024-03-29T04:11:14;3.15;;;2.70;;
63350;SDS011;74263;51.058;17.040;2024-03-29T04:16:14;5.18;;;2.70;;
63350;SDS011;74263;51.058;17.040;2024-03-29T04:21:15;5.43;;;2.83;;
63350;SDS011;74263;51.058;17.040;2024-03-29T04:26:15;4.60;;;3.03;;
63350;SDS011;74263;51.058;17.040;2024-03-29T04:31:16;3.38;;;2.90;;
63350;SDS011;74263;51.058;17.040;2024-03-29T04:36:17;6.22;;;2.78;;
63350;SDS011;74263;51.058;17.040;2024-03-29T04:41:17;3.65;;;2.90;;
63350;SDS011;74263;51.058;17.040;2024-03-29T04:46:18;6.03;;;2.70;;
63350;SDS011;74263;51.058;17.040;2024-03-29T04:51:18;4.72;;;2.30;;
63350;SDS011;74263;51.058;17.040;2024-03-29T04:56:19;3.08;;;1.80;;
63350;SDS011;74263;51.058;17.040;2024-03-29T05:01:19;3.33;;;2.53;;
63350;SDS011;74263;51.058;17.040;2024-03-29T05:06:20;4.60;;;2.50;;
63350;SDS011;74263;51.058;17.040;2024-03-29T05:11:20;5.30;;;2.60;;
63350;SDS011;74263;51.058;17.040;2024-03-29T05:16:21;2.28;;;1.23;;
63350;SDS011;74263;51.058;17.040;2024-03-29T05:21:21;2.20;;;2.00;;
63350;SDS011;74263;51.058;17.040;2024-03-29T05:26:22;4.07;;;1.90;;
63350;SDS011;74263;51.058;17.040;2024-03-29T05:31:23;2.90;;;2.08;;
63350;SDS011;74263;51.058;17.040;2024-03-29T05:36:23;2.92;;;2.08;;
63350;SDS011;74263;51.058;17.040;2024-03-29T05:41:24;3.55;;;2.20;;
63350;SDS011;74263;51.058;17.040;2024-03-29T05:46:24;5.45;;;2.00;;
63350;SDS011;74263;51.058;17.040;2024-03-29T05:51:25;3.13;;;1.92;;
63350;SDS011;74263;51.058;17.040;2024-03-29T05:56:25;3.13;;;1.45;;
63350;SDS011;74263;51.058;17.040;2024-03-29T06:01:26;2.45;;;1.65;;
63350;SDS011;74263;51.058;17.040;2024-03-29T06:06:26;3.83;;;1.70;;
63350;SDS011;74263;51.058;17.040;2024-03-29T06:11:27;4.13;;;1.77;;
63350;SDS011;74263;51.058;17.040;2024-03-29T06:16:28;2.22;;;1.38;;
63350;SDS011;74263;51.058;17.040;2024-03-29T06:21:28;2.05;;;1.33;;
63350;SDS011;74263;51.058;17.040;2024-03-29T06:26:29;2.22;;;1.42;;
63350;SDS011;74263;51.058;17.040;2024-03-29T06:31:29;2.92;;;1.27;;
63350;SDS011;74263;51.058;17.040;2024-03-29T06:36:30;3.92;;;1.80;;
63350;SDS011;74263;51.058;17.040;2024-03-29T06:41:30;3.17;;;1.77;;
63350;SDS011;74263;51.058;17.040;2024-03-29T06:46:31;2.40;;;1.30;;
63350;SDS011;74263;51.058;17.040;2024-03-29T06:51:31;2.78;;;1.20;;
63350;SDS011;74263;51.058;17.040;2024-03-29T06:56:32;1.00;;;1.00;;
63350;SDS011;74263;51.058;17.040;2024-03-29T07:01:33;1.35;;;1.08;;
63350;SDS011;74263;51.058;17.040;2024-03-29T07:06:33;1.38;;;1.02;;
63350;SDS011;74263;51.058;17.040;2024-03-29T07:11:34;1.08;;;0.88;;
63350;SDS011;74263;51.058;17.040;2024-03-29T07:16:34;3.35;;;1.20;;
63350;SDS011;74263;51.058;17.040;2024-03-29T07:21:35;3.58;;;1.05;;
63350;SDS011;74263;51.058;17.040;2024-03-29T07:26:36;1.75;;;1.00;;
63350;SDS011;74263;51.058;17.040;2024-03-29T07:31:36;3.20;;;0.80;;
63350;SDS011;74263;51.058;17.040;2024-03-29T07:36:37;7.10;;;1.02;;
63350;SDS011;74263;51.058;17.040;2024-03-29T07:41:37;1.10;;;0.88;;
63350;SDS011;74263;51.058;17.040;2024-03-29T07:46:38;1.92;;;0.75;;
63350;SDS011;74263;51.058;17.040;2024-03-29T07:51:38;3.30;;;0.88;;
63350;SDS011;74263;51.058;17.040;2024-03-29T07:56:39;1.35;;;0.55;;
63350;SDS011;74263;51.058;17.040;2024-03-29T08:01:40;3.50;;;1.10;;
63350;SDS011;74263;51.058;17.040;2024-03-29T08:06:41;0.90;;;0.80;;
63350;SDS011;74263;51.058;17.040;2024-03-29T08:11:43;4.38;;;0.73;;
63350;SDS011;74263;51.058;17.040;2024-03-29T08:16:43;2.00;;;0.70;;
63350;SDS011;74263;51.058;17.040;2024-03-29T08:21:44;11.45;;;0.80;;
63350;SDS011;74263;51.058;17.040;2024-03-29T08:26:44;2.03;;;0.88;;
63350;SDS011;74263;51.058;17.040;2024-03-29T08:31:45;3.78;;;0.93;;
63350;SDS011;74263;51.058;17.040;2024-03-29T08:36:45;2.38;;;1.02;;
63350;SDS011;74263;51.058;17.040;2024-03-29T08:41:46;2.17;;;0.70;;
63350;SDS011;74263;51.058;17.040;2024-03-29T08:46:47;3.42;;;0.80;;
63350;SDS011;74263;51.058;17.040;2024-03-29T08:51:47;4.82;;;0.82;;
63350;SDS011;74263;51.058;17.040;2024-03-29T08:56:48;1.98;;;0.80;;
63350;SDS011;74263;51.058;17.040;2024-03-29T09:01:48;0.70;;;0.50;;
63350;SDS011;74263;51.058;17.040;2024-03-29T09:06:49;1.48;;;0.63;;
63350;SDS011;74263;51.058;17.040;2024-03-29T09:11:50;0.98;;;0.80;;
63350;SDS011;74263;51.058;17.040;2024-03-29T09:16:50;4.32;;;0.90;;
63350;SDS011;74263;51.058;17.040;2024-03-29T09:21:51;0.55;;;0.47;;
63350;SDS011;74263;51.058;17.040;2024-03-29T09:26:51;1.85;;;0.60;;
63350;SDS011;74263;51.058;17.040;2024-03-29T09:31:53;3.70;;;1.80;;
63350;SDS011;74263;51.058;17.040;2024-03-29T09:36:54;1.80;;;0.63;;
63350;SDS011;74263;51.058;17.040;2024-03-29T09:41:55;1.50;;;0.70;;
63350;SDS011;74263;51.058;17.040;2024-03-29T09:47:02;1.15;;;0.40;;
63350;SDS011;74263;51.058;17.040;2024-03-29T09:52:03;2.13;;;0.50;;
63350;SDS011;74263;51.058;17.040;2024-03-29T09:57:05;0.40;;;0.40;;
63350;SDS011;74263;51.058;17.040;2024-03-29T10:02:11;0.30;;;0.30;;
63350;SDS011;74263;51.058;17.040;2024-03-29T10:07:14;0.55;;;0.30;;
63350;SDS011;74263;51.058;17.040;2024-03-29T10:12:15;3.78;;;0.68;;
63350;SDS011;74263;51.058;17.040;2024-03-29T10:17:16;4.57;;;1.35;;
63350;SDS011;74263;51.058;17.040;2024-03-29T10:22:16;1.35;;;0.65;;
63350;SDS011;74263;51.058;17.040;2024-03-29T10:27:17;1.10;;;0.45;;
63350;SDS011;74263;51.058;17.040;2024-03-29T10:32:18;0.90;;;0.40;;
63350;SDS011;74263;51.058;17.040;2024-03-29T10:37:18;0.85;;;0.40;;
63350;SDS011;74263;51.058;17.040;2024-03-29T10:42:19;2.78;;;0.50;;
63350;SDS011;74263;51.058;17.040;2024-03-29T10:47:20;0.77;;;0.77;;
63350;SDS011;74263;51.058;17.040;2024-03-29T10:52:21;1.35;;;0.43;;
63350;SDS011;74263;51.058;17.040;2024-03-29T10:57:25;0.45;;;0.45;;
63350;SDS011;74263;51.058;17.040;2024-03-29T11:07:46;0.90;;;0.45;;
63350;SDS011;74263;51.058;17.040;2024-03-29T11:12:50;1.58;;;0.63;;
63350;SDS011;74263;51.058;17.040;2024-03-29T11:17:51;1.55;;;0.70;;
63350;SDS011;74263;51.058;17.040;2024-03-29T11:22:52;3.28;;;0.85;;
63350;SDS011;74263;51.058;17.040;2024-03-29T11:28:03;2.05;;;0.50;;
63350;SDS011;74263;51.058;17.040;2024-03-29T11:33:03;1.58;;;0.60;;
63350;SDS011;74263;51.058;17.040;2024-03-29T11:38:04;2.05;;;0.60;;
63350;SDS011;74263;51.058;17.040;2024-03-29T11:43:05;0.50;;;0.45;;
63350;SDS011;74263;51.058;17.040;2024-03-29T11:48:05;1.52;;;0.60;;
